Time,TemperatureF,DewpointF,PressureIn,WindDirection,WindDirectionDegrees,WindSpeedMPH,WindSpeedGustMPH,Humidity,HourlyPrecipIn,Conditions,Clouds,dailyrainin,SolarRadiationWatts/m^2,SoftwareType,DateUTC
2013-09-08 00:04:00,64.8,42.0,31.36,NNE,21,5.0,9.0,43,0.00,,,0.00,0,weatherlink.com 1.10,2013-09-08 06:04:00,
2013-09-08 00:19:00,64.5,42.0,31.36,NNE,18,6.0,10.0,44,0.00,,,0.00,0,weatherlink.com 1.10,2013-09-08 06:19:00,
2013-09-08 00:34:00,63.9,42.0,31.36,NNE,24,5.0,12.0,45,0.00,,,0.00,0,weatherlink.com 1.10,2013-09-08 06:34:00,
2013-09-08 00:49:00,64.0,42.0,31.36,NNE,26,6.0,13.0,45,0.00,,,0.00,0,weatherlink.com 1.10,2013-09-08 06:49:00,
2013-09-08 01:04:00,63.7,42.0,31.36,North,9,5.0,11.0,45,0.00,,,0.00,0,weatherlink.com 1.10,2013-09-08 07:04:00,
2013-09-08 01:19:00,63.4,42.0,31.36,North,11,5.0,10.0,46,0.00,,,0.00,0,weatherlink.com 1.10,2013-09-08 07:19:00,
2013-09-08 01:34:00,63.1,42.0,31.36,NNE,25,5.0,10.0,47,0.00,,,0.00,0,weatherlink.com 1.10,2013-09-08 07:34:00,
2013-09-08 01:49:00,62.8,42.0,31.36,North,5,4.0,8.0,47,0.00,,,0.00,0,weatherlink.com 1.10,2013-09-08 07:49:00,
2013-09-08 02:04:00,62.4,42.0,31.36,NNE,12,3.0,8.0,48,0.00,,,0.00,0,weatherlink.com 1.10,2013-09-08 08:04:00,
2013-09-08 02:19:00,62.2,43.0,31.36,NE,53,4.0,7.0,49,0.00,,,0.00,0,weatherlink.com 1.10,2013-09-08 08:19:00,
2013-09-08 02:34:00,62.0,42.0,31.35,NNE,30,3.0,7.0,49,0.00,,,0.00,0,weatherlink.com 1.10,2013-09-08 08:34:00,
2013-09-08 02:49:00,61.9,43.0,31.36,NNE,13,3.0,11.0,50,0.00,,,0.00,0,weatherlink.com 1.10,2013-09-08 08:49:00,
2013-09-08 03:04:00,61.3,43.0,31.36,North,360,0.0,6.0,51,0.00,,,0.00,0,weatherlink.com 1.10,2013-09-08 09:04:00,
2013-09-08 03:19:00,60.2,42.0,31.36,North,360,0.0,3.0,52,0.00,,,0.00,0,weatherlink.com 1.10,2013-09-08 09:19:00,
2013-09-08 03:34:00,59.7,42.0,31.36,NNW,340,2.0,5.0,53,0.00,,,0.00,0,weatherlink.com 1.10,2013-09-08 09:34:00,
2013-09-08 03:49:00,59.5,43.0,31.36,NNW,340,0.0,1.0,54,0.00,,,0.00,0,weatherlink.com 1.10,2013-09-08 09:49:00,
2013-09-08 04:04:00,58.5,43.0,31.36,WNW,292,0.0,2.0,56,0.00,,,0.00,0,weatherlink.com 1.10,2013-09-08 10:04:00,
2013-09-08 04:19:00,57.9,43.0,31.36,SW,227,3.0,3.0,57,0.00,,,0.00,0,weatherlink.com 1.10,2013-09-08 10:19:00,
2013-09-08 04:34:00,58.4,43.0,31.37,South,178,0.0,4.0,57,0.00,,,0.00,0,weatherlink.com 1.10,2013-09-08 10:34:00,
2013-09-08 04:49:00,58.4,43.0,31.37,ESE,114,4.0,5.0,57,0.00,,,0.00,0,weatherlink.com 1.10,2013-09-08 10:49:00,
2013-09-08 05:04:00,57.6,42.0,31.38,WNW,293,4.0,5.0,57,0.00,,,0.00,0,weatherlink.com 1.10,2013-09-08 11:04:00,
2013-09-08 05:19:00,53.2,42.0,31.38,NNW,328,0.0,3.0,67,0.00,,,0.00,0,weatherlink.com 1.10,2013-09-08 11:19:00,
2013-09-08 05:34:00,55.2,43.0,31.38,NNW,328,0.0,2.0,63,0.00,,,0.00,0,weatherlink.com 1.10,2013-09-08 11:34:00,
2013-09-08 05:49:00,56.4,43.0,31.38,NNW,336,1.0,4.0,61,0.00,,,0.00,0,weatherlink.com 1.10,2013-09-08 11:49:00,
2013-09-08 06:04:00,56.0,43.0,31.38,NW,309,1.0,2.0,62,0.00,,,0.00,0,weatherlink.com 1.10,2013-09-08 12:04:00,
2013-09-08 06:19:00,54.2,43.0,31.38,WSW,238,4.0,5.0,65,0.00,,,0.00,0,weatherlink.com 1.10,2013-09-08 12:19:00,
2013-09-08 06:34:00,53.0,43.0,31.38,SSE,150,0.0,1.0,68,0.00,,,0.00,0,weatherlink.com 1.10,2013-09-08 12:34:00,
2013-09-08 06:49:00,54.6,43.0,31.38,SSE,150,2.0,3.0,64,0.00,,,0.00,0,weatherlink.com 1.10,2013-09-08 12:49:00,
2013-09-08 07:04:00,55.2,43.0,31.38,SSE,149,3.0,6.0,63,0.00,,,0.00,0,weatherlink.com 1.10,2013-09-08 13:04:00,
2013-09-08 07:19:00,54.1,42.0,31.38,SSE,163,0.0,3.0,65,0.00,,,0.00,16,weatherlink.com 1.10,2013-09-08 13:19:00,
2013-09-08 07:35:00,53.5,43.0,31.38,SSE,163,3.0,3.0,67,0.00,,,0.00,25,weatherlink.com 1.10,2013-09-08 13:35:00,
2013-09-08 07:50:00,54.4,43.0,31.38,SSE,167,3.0,5.0,65,0.00,,,0.00,25,weatherlink.com 1.10,2013-09-08 13:50:00,
2013-09-08 08:05:00,54.5,43.0,31.38,SSE,167,0.0,0.0,65,0.00,,,0.00,28,weatherlink.com 1.10,2013-09-08 14:05:00,
2013-09-08 08:20:00,54.0,43.0,31.39,WNW,298,0.0,5.0,67,0.00,,,0.00,21,weatherlink.com 1.10,2013-09-08 14:20:00,
2013-09-08 08:35:00,53.6,46.0,31.39,WNW,300,2.0,4.0,74,0.00,,,0.00,23,weatherlink.com 1.10,2013-09-08 14:35:00,
2013-09-08 08:50:00,51.0,45.0,31.38,NE,51,4.0,6.0,80,0.00,,,0.00,90,weatherlink.com 1.10,2013-09-08 14:50:00,
2013-09-08 09:05:00,53.4,45.0,31.38,NE,53,2.0,8.0,74,0.00,,,0.00,128,weatherlink.com 1.10,2013-09-08 15:05:00,
2013-09-08 09:20:00,54.9,47.0,31.39,NNW,344,5.0,6.0,76,0.00,,,0.00,334,weatherlink.com 1.10,2013-09-08 15:20:00,
2013-09-08 09:35:00,52.8,47.0,31.39,North,350,4.0,4.0,81,0.00,,,0.00,98,weatherlink.com 1.10,2013-09-08 15:35:00,
2013-09-08 09:50:00,52.5,48.0,31.39,North,360,5.0,8.0,85,0.02,,,0.02,72,weatherlink.com 1.10,2013-09-08 15:50:00,
2013-09-08 10:05:00,52.1,48.0,31.39,NNE,12,2.0,7.0,87,0.02,,,0.02,72,weatherlink.com 1.10,2013-09-08 16:05:00,
2013-09-08 10:20:00,53.9,49.0,31.39,North,5,7.0,9.0,83,0.02,,,0.02,171,weatherlink.com 1.10,2013-09-08 16:20:00,
2013-09-08 10:35:00,53.4,49.0,31.41,NNE,15,6.0,9.0,86,0.02,,,0.02,49,weatherlink.com 1.10,2013-09-08 16:35:00,
2013-09-08 10:50:00,53.8,47.0,31.39,NNE,18,8.0,14.0,78,0.00,,,0.02,93,weatherlink.com 1.10,2013-09-08 16:50:00,
2013-09-08 11:05:00,54.5,47.0,31.39,NNE,24,4.0,12.0,76,0.00,,,0.02,207,weatherlink.com 1.10,2013-09-08 17:05:00,
2013-09-08 11:20:00,54.7,48.0,31.39,North,5,7.0,11.0,77,0.00,,,0.02,62,weatherlink.com 1.10,2013-09-08 17:20:00,
2013-09-08 11:35:00,52.7,49.0,31.40,North,360,7.0,8.0,86,0.03,,,0.05,49,weatherlink.com 1.10,2013-09-08 17:35:00,
2013-09-08 11:50:00,51.9,49.0,31.41,NNE,21,3.0,8.0,89,0.05,,,0.07,46,weatherlink.com 1.10,2013-09-08 17:50:00,
2013-09-08 12:05:00,52.3,49.0,31.41,ENE,59,7.0,13.0,88,0.07,,,0.09,246,weatherlink.com 1.10,2013-09-08 18:05:00,
2013-09-08 12:20:00,53.8,50.0,31.40,NE,49,3.0,10.0,86,0.07,,,0.09,209,weatherlink.com 1.10,2013-09-08 18:20:00,
2013-09-08 12:35:00,54.2,50.0,31.40,NNW,338,3.0,9.0,86,0.04,,,0.09,156,weatherlink.com 1.10,2013-09-08 18:35:00,
2013-09-08 12:50:00,53.7,50.0,31.39,NNE,21,5.0,8.0,87,0.02,,,0.09,132,weatherlink.com 1.10,2013-09-08 18:50:00,
2013-09-08 13:05:00,54.7,50.0,31.39,NNE,13,2.0,5.0,85,0.00,,,0.09,221,weatherlink.com 1.10,2013-09-08 19:05:00,
2013-09-08 13:20:00,56.3,51.0,31.39,North,9,3.0,7.0,81,0.00,,,0.09,350,weatherlink.com 1.10,2013-09-08 19:20:00,
2013-09-08 13:35:00,57.2,53.0,31.39,West,267,3.0,6.0,85,0.00,,,0.09,392,weatherlink.com 1.10,2013-09-08 19:35:00,
2013-09-08 13:50:00,58.2,51.0,31.39,NW,324,1.0,4.0,78,0.00,,,0.09,378,weatherlink.com 1.10,2013-09-08 19:50:00,
2013-09-08 14:05:00,60.2,52.0,31.38,WNW,292,4.0,5.0,73,0.00,,,0.09,814,weatherlink.com 1.10,2013-09-08 20:05:00,
2013-09-08 14:20:00,61.3,51.0,31.38,WSW,250,2.0,6.0,70,0.00,,,0.09,789,weatherlink.com 1.10,2013-09-08 20:20:00,
2013-09-08 14:35:00,61.9,52.0,31.37,SW,225,0.0,8.0,70,0.00,,,0.09,770,weatherlink.com 1.10,2013-09-08 20:35:00,
2013-09-08 14:50:00,62.2,53.0,31.36,SSW,209,1.0,11.0,71,0.00,,,0.09,814,weatherlink.com 1.10,2013-09-08 20:50:00,
2013-09-08 15:05:00,62.3,52.0,31.35,WSW,244,7.0,12.0,70,0.00,,,0.09,348,weatherlink.com 1.10,2013-09-08 21:05:00,
2013-09-08 15:20:00,62.4,52.0,31.35,SW,226,7.0,10.0,68,0.00,,,0.09,160,weatherlink.com 1.10,2013-09-08 21:20:00,
2013-09-08 15:35:00,61.3,50.0,31.35,SSW,192,6.0,7.0,67,0.00,,,0.09,155,weatherlink.com 1.10,2013-09-08 21:35:00,
2013-09-08 15:50:00,61.4,51.0,31.34,SSW,200,4.0,7.0,69,0.00,,,0.09,193,weatherlink.com 1.10,2013-09-08 21:50:00,
2013-09-08 16:05:00,61.8,51.0,31.34,SSW,205,5.0,8.0,67,0.00,,,0.09,167,weatherlink.com 1.10,2013-09-08 22:05:00,
2013-09-08 16:20:00,62.3,49.0,31.34,SSW,207,4.0,7.0,62,0.00,,,0.09,262,weatherlink.com 1.10,2013-09-08 22:20:00,
2013-09-08 16:35:00,64.0,48.0,31.34,SW,225,4.0,8.0,57,0.00,,,0.09,775,weatherlink.com 1.10,2013-09-08 22:35:00,
2013-09-08 16:50:00,64.8,48.0,31.34,SW,215,6.0,12.0,54,0.00,,,0.09,297,weatherlink.com 1.10,2013-09-08 22:50:00,
2013-09-08 17:05:00,66.5,46.0,31.35,NW,304,8.0,10.0,48,0.00,,,0.09,652,weatherlink.com 1.10,2013-09-08 23:05:00,
2013-09-08 17:20:00,66.8,45.0,31.34,West,267,5.0,16.0,45,0.00,,,0.09,684,weatherlink.com 1.10,2013-09-08 23:20:00,
2013-09-08 17:35:00,66.3,47.0,31.34,North,355,7.0,13.0,50,0.00,,,0.09,176,weatherlink.com 1.10,2013-09-08 23:35:00,
2013-09-08 17:50:00,62.2,46.0,31.35,WNW,282,4.0,9.0,55,0.00,,,0.09,153,weatherlink.com 1.10,2013-09-08 23:50:00,
2013-09-08 18:05:00,64.4,46.0,31.34,WNW,302,6.0,12.0,51,0.00,,,0.09,459,weatherlink.com 1.10,2013-09-09 00:05:00,
2013-09-08 18:20:00,63.6,44.0,31.35,NW,313,3.0,15.0,50,0.00,,,0.09,114,weatherlink.com 1.10,2013-09-09 00:20:00,
2013-09-08 18:35:00,64.8,44.0,31.35,West,280,7.0,15.0,48,0.00,,,0.09,367,weatherlink.com 1.10,2013-09-09 00:35:00,
2013-09-08 18:50:00,62.4,44.0,31.36,WNW,296,11.0,15.0,51,0.00,,,0.09,53,weatherlink.com 1.10,2013-09-09 00:50:00,
2013-09-08 19:05:00,62.8,45.0,31.36,West,271,11.0,15.0,52,0.00,,,0.09,214,weatherlink.com 1.10,2013-09-09 01:05:00,
2013-09-08 19:20:00,61.5,45.0,31.36,WNW,288,1.0,11.0,55,0.00,,,0.09,49,weatherlink.com 1.10,2013-09-09 01:20:00,
2013-09-08 19:35:00,61.1,45.0,31.36,NW,309,4.0,11.0,55,0.00,,,0.09,39,weatherlink.com 1.10,2013-09-09 01:35:00,
2013-09-08 19:50:00,60.0,44.0,31.36,NNW,329,9.0,11.0,56,0.00,,,0.09,18,weatherlink.com 1.10,2013-09-09 01:50:00,
2013-09-08 20:05:00,59.8,43.0,31.37,WNW,299,3.0,15.0,55,0.00,,,0.09,0,weatherlink.com 1.10,2013-09-09 02:05:00,
2013-09-08 20:20:00,59.4,44.0,31.38,NNW,333,4.0,8.0,57,0.00,,,0.09,0,weatherlink.com 1.10,2013-09-09 02:20:00,
2013-09-08 20:35:00,58.9,44.0,31.39,NNW,332,6.0,8.0,58,0.00,,,0.09,0,weatherlink.com 1.10,2013-09-09 02:35:00,
2013-09-08 20:50:00,58.7,44.0,31.39,NW,321,2.0,7.0,58,0.00,,,0.09,0,weatherlink.com 1.10,2013-09-09 02:50:00,
2013-09-08 21:05:00,58.6,44.0,31.39,NNW,339,3.0,10.0,59,0.00,,,0.09,0,weatherlink.com 1.10,2013-09-09 03:05:00,
2013-09-08 21:20:00,58.0,44.0,31.40,NNW,340,2.0,9.0,60,0.00,,,0.09,0,weatherlink.com 1.10,2013-09-09 03:20:00,
2013-09-08 21:35:00,57.2,43.0,31.40,NNW,336,2.0,5.0,60,0.00,,,0.09,0,weatherlink.com 1.10,2013-09-09 03:35:00,
2013-09-08 21:50:00,56.7,44.0,31.40,NNW,342,0.0,6.0,62,0.00,,,0.09,0,weatherlink.com 1.10,2013-09-09 03:50:00,
2013-09-08 22:05:00,56.5,43.0,31.40,NNW,333,0.0,5.0,62,0.00,,,0.09,0,weatherlink.com 1.10,2013-09-09 04:05:00,
2013-09-08 22:20:00,56.4,43.0,31.41,NNW,333,0.0,3.0,62,0.00,,,0.09,0,weatherlink.com 1.10,2013-09-09 04:20:00,
2013-09-08 22:36:00,56.6,44.0,31.41,NNW,339,3.0,4.0,62,0.00,,,0.09,0,weatherlink.com 1.10,2013-09-09 04:36:00,
2013-09-08 22:51:00,56.5,43.0,31.41,NNW,340,2.0,3.0,62,0.00,,,0.09,0,weatherlink.com 1.10,2013-09-09 04:51:00,
2013-09-08 23:06:00,56.3,43.0,31.42,NNW,340,0.0,4.0,62,0.00,,,0.09,0,weatherlink.com 1.10,2013-09-09 05:06:00,
2013-09-08 23:21:00,56.5,43.0,31.42,NNW,327,3.0,5.0,62,0.00,,,0.09,0,weatherlink.com 1.10,2013-09-09 05:21:00,
2013-09-08 23:36:00,57.0,43.0,31.43,North,5,0.0,8.0,61,0.00,,,0.09,0,weatherlink.com 1.10,2013-09-09 05:36:00,
2013-09-08 23:51:00,56.9,43.0,31.42,North,355,2.0,4.0,61,0.00,,,0.09,0,weatherlink.com 1.10,2013-09-09 05:51:00,